空港情報

日本の空港の気象及び、管制情報です。
気象情報はより詳細な情報が取得できる「AVIATION WEATER CENTER」 から取得しているため、VATSIMの気象情報と若干のタイムラグが生じることがあります。

VRCのフィールド設定用空港一覧はこちらをご覧ください。

RJCG Sapporo Control

RJCW / Wakkanai
VMC

NO RADAR

RADIO

08/26 2200x45

民間 civil

9999

330@12KT

30.03

RJCW 220900Z 33012KT 9999 FEW030 BKN/// 06/M03 Q1017

RJER / Rishiri

NO RADAR

REMOTE

25/07 1800x45

民間 civil

過去5時間に発表されたMETARがありません。

RJEB / Monbetsu

NO RADAR

REMOTE

32/14 2000x45

民間 civil

過去5時間に発表されたMETARがありません。

RJCM / Memanbetsu
VMC

NO RADAR

TOWER

36/18 2500x45

民間 civil

9999

360@6KT

30.00

RJCM 221100Z 36006KT 9999 FEW008 SCT020 BKN025 07/02 Q1016

RJEC / Asahikawa
VMC

NO RADAR

TOWER

34/16 2500x60

民間 civil

9999

340@14KT

29.94

RJEC 221100Z 34014KT 9999 FEW010 SCT018 BKN025 06/02 Q1014

RJCN / Nakashibetsu
VMC

NO RADAR

RADIO

08/26 2000x45

民間 civil

9999

110@3KT

29.88

RJCN 220900Z 11003KT 060V150 9999 FEW004 SCT020 BKN040 10/09 Q1012

RJCK / Kushiro
VMC

NO RADAR

TOWER

17/35 2500x45

民間 civil

9999

020@11KT

29.85

RJCK 221100Z 02011KT 9999 FEW010 SCT025 BKN060 09/06 Q1011

RJCO / Sapporo

RJCO_APP

TOWER

14/32 1500x30

共用 dual

過去5時間に発表されたMETARがありません。

RJCJ / Chitose

RJCC_APP

TOWER

36R/18L 3000x60
36L/18R 2700x45

自衛隊 military

過去5時間に発表されたMETARがありません。

RJCC / NewChitose
VMC

RJCC_APP

TOWER

01L/19R 3000x60
01R/19L 3000x60

民間 civil

9999

350@17KT

29.82

RJCC 221300Z 35017KT 9999 FEW015 BKN140 08/02 Q1010 RMK 1ST015 7AC140 A2984

RJCB / Obihiro
VMC

NO RADAR

TOWER

35/17 2500x45

民間 civil

9999

030@10KT

29.85

RJCB 221100Z 03010KT 360V060 9999 -SHRA FEW010 BKN030 09/07 Q1011

RJEO / Okushiri

NO RADAR

REMOTE

12/30 1500x45

民間 civil

過去5時間に発表されたMETARがありません。

RJCH / Hakodate
VMC

RJCH_APP

TOWER

12/30 3000x45

民間 civil

9999

320@5KT

29.82

RJCH 221100Z 32005KT 9999 FEW010 BKN130 11/08 Q1010

RJSA / Aomori
VMC

NO RADAR

TOWER

24/06 3000x60

民間 civil

3000

040@13KT

29.76

RJSA 221200Z 04013KT 3000 SHRA BR FEW002 SCT015 BKN025 11/11 Q1008

RJSO / Ominato

RJSM_APP

TOWER

04/22 600x45

自衛隊 military

過去5時間に発表されたMETARがありません。

RJSM / Misawa

RJSM_APP

TOWER

10/28 3050x45

共用 dual

過去5時間に発表されたMETARがありません。

RJSH / Hachinohe
VMC

RJSM_APP

TOWER

25/07 2250x45

自衛隊 military

3200

360@17G27KT

29.73

RJSH 221223Z 36017G27KT 3200 -SHRA BR SCT008 BKN012 OVC020 13/12 Q1007 RMK 3ST008 5ST012 8CU020 A2974

RJSK / Akita
IMC

NO RADAR

TOWER

10/28 2500x60

民間 civil

4000

300@5KT

29.62

RJSK 221243Z 30005KT 4000 -SHRA BR FEW001 BKN004 BKN020 13/12 Q1003 RMK 2ST001 5ST004 6CU020 A2964

RJSI / Hanamaki
VMC

NO RADAR

RADIO

20/02 2500x45

民間 civil

9999

350@17KT

29.70

RJSI 221000Z 35017KT 9999 -RA FEW005 SCT090 OVC120 14/13 Q1006

RJSR / Odate-Noshiro
VMC

NO RADAR

REMOTE

11/29 2000x45

民間 civil

6000

050@7KT

29.76

RJSR 221000Z 05007KT 010V100 6000 -SHRA FEW003 SCT010 BKN040 12/12 Q1008

RJTG Tokyo Control

RJSY / Shonai
VMC

NO RADAR

RADIO

09/27 2000x45

民間 civil

6000

010@3KT

29.59

RJSY 221200Z 01003KT 320V070 6000 -SHRA FEW010 SCT020 BKN040 17/15 Q1002

RJSC / Yamagata
VMC

NO RADAR

RADIO

01/19 2000x45

民間 civil

8000

360@12KT

29.65

RJSC 221000Z 36012KT 8000 -SHRA FEW003 SCT020 BKN040 17/15 Q1004

RJST / Matsushima

RJSS_APP

TOWER

07/25 2071x46
15/33 1500x46

自衛隊 military

過去5時間に発表されたMETARがありません。

RJSS / Sendai
VMC

RJSS_APP

TOWER

27/09 3000x45
12/30 1200x45

民間 civil

5000

350@14KT

29.53

RJSS 221200Z 35014KT 5000 SHRA BR FEW002 SCT008 BKN010 15/15 Q1000

RJSD / Sado

NO RADAR

REMOTE

10/28 890x25

民間 civil

過去5時間に発表されたMETARがありません。

RJSN / Niigata
VMC

RJSN_APP

TOWER

10/28 2500x45
04/22 1314x45

民間 civil

9999

020@26KT

29.50

RJSN 221200Z 02026KT 9999 -SHRA FEW008 SCT020 BKN070 19/18 Q0999

RJSF / Fukushima
IMC

NO RADAR

RADIO

01/19 2500x60

民間 civil

1500

310@6KT

29.53

RJSF 221126Z 31006KT 260V360 1500 R01/P1800N +SHRA BR FEW002 BKN012 BKN020 15/15 Q1000 RMK 1ST002 5ST012 6CU020 A2955

RJAH / Ibaraki/Hyakuri
VMC

RJAH_APP

TOWER

03L/21R 2700x45
03R/21L 2700x45

共用 dual

4000

040@23G36KT

29.35

RJAH 221300Z 04023G36KT 4000 SHRA BR FEW004 BKN006 FEW015CB OVC020 17/17 Q0994

RJTT / Tokyo
VMC

RJTT_APP

TOWER

34LR/16RL 3000x60
04/22&05/23 2500x60

民間 civil

3500

010@7KT

29.32

RJTT 221313Z 01007KT 320V040 3500 R34L/1400VP1800U R22/1100VP1800D R34R/0900VP1800N R23/1100VP1800U +SHRA BR FEW005 BKN007 BKN009 18/18 Q0993 RMK 1ST005 5ST007 6ST009 A2933

RJAA / Narita
VMC

RJTT_APP

TOWER

34L/16R 4000x60
34R/16L 2500x60

民間 civil

5000

030@23G33KT

29.32

RJAA 221300Z 03023G33KT 5000 -SHRA BR FEW006 BKN008 BKN012 18/17 Q0993 WS R34R TEMPO 4000 SHRA BR

RJTL / Shimofusa
VMC

RJTT_APP

TOWER

19/01 2250x45

自衛隊 military

4000

050@16G27KT

29.29

RJTL 221305Z 05016G27KT 4000 SHRA BR FEW004 BKN008 BKN012 17/17 Q0992 RMK 2ST004 6ST008 7CU012 A2930 P/FR

RJTE / Tateyama
VMC

RJTT_APP

TOWER

09/27 300x45

自衛隊 military

4500

100@3KT

29.23

RJTE 221308Z 10003KT 050V150 4500 +SHRA BR FEW003 BKN007 BKN012 FEW012TCU 19/18 Q0990 RMK 1ST003 5ST007 7CU012 1TCU012 A2924 TCU OHD MOV NW P/FR

RJTO / Oshima

NO RADAR

RADIO

03/21 1800x45

民間 civil

過去5時間に発表されたMETARがありません。

RJTK / Kisarazu

NO RADAR

TOWER

02/20 1830x45

自衛隊 military

過去5時間に発表されたMETARがありません。

RJAN / Niijima

NO RADAR

REMOTE

11/29 800x25

自衛隊 military

過去5時間に発表されたMETARがありません。

RJAZ / Kozushima

NO RADAR

REMOTE

11/29 800x25

民間 civil

過去5時間に発表されたMETARがありません。

RJTH / Hachijojima

NO RADAR

RADIO

26/08 2000x45

民間 civil

過去5時間に発表されたMETARがありません。

RJTF / Chofu

NO RADAR

Flight Service

35/17 800x30

民間 civil

過去5時間に発表されたMETARがありません。

RJTQ / Miyake

NO RADAR

REMOTE

02/20 1200x30

民間 civil

過去5時間に発表されたMETARがありません。

RJTC / Tachikawa

NO RADAR

TOWER

01/19 900x45

自衛隊 military

過去5時間に発表されたMETARがありません。

RJTA / Atsugi

NO RADAR

TOWER

01/19 2438x45

自衛隊 military

過去5時間に発表されたMETARがありません。

RJTU / Utsunomiya

RJTY_APP

TOWER

01/19 1700x45

自衛隊 military

過去5時間に発表されたMETARがありません。

RJTJ / Iruma

RJTY_APP

TOWER

17/35 2000x45

自衛隊 military

過去5時間に発表されたMETARがありません。

RJTY / Yokota
VMC

RJTY_APP

TOWER

18/36 3353x60

自衛隊 military

9700

350@8KT

29.39

RJTY 221318Z AUTO 35008KT 6SM +RA BR SCT002 BKN010 OVC018 16/16 A2939 RMK AO2 CIG 002V010 SLP953 FZRANO $

RJAF / Matsumoto

NO RADAR

RADIO

18/36 2000x45

民間 civil

過去5時間に発表されたMETARがありません。

RJNS / Shizuoka
VMC

NO RADAR

RADIO

30/12 2500x60

民間 civil

9999

050@17G34KT

29.03

RJNS 221200Z 05017G34KT 020V110 9999 -SHRA FEW000 SCT020 BKN035 20/19 Q0983

RJNY / Yaizu-Shizuhama
VMC

NO RADAR

TOWER

27/09 1500x45

自衛隊 military

3500

070@25G40KT

29.00

RJNY 221311Z 07025G40KT 3500 SHRA FEW005 SCT010 BKN020 20/18 Q0982 RMK 1ST005 3CU010 7CU020 A2901 VIS E-S 2500M

RJNH / Hamamatsu

RJNH_APP

TOWER

09/27 2550x60

自衛隊 military

過去5時間に発表されたMETARがありません。

RJGG / Chubu
IMC

RJGG_APP

TOWER

36/18 3500x60

民間 civil

1500

330@23KT

28.88

RJGG 221300Z 33023KT 1500 R36/1000VP1800N +SHRA BR FEW002 BKN004 BKN010 18/17 Q0978 BECMG 34033KT

RJNA / Nagoya

RJGG_APP

TOWER

34/16 2740x45

民間 civil

過去5時間に発表されたMETARがありません。

RJNG / Gifu
VMC

RJGG_APP

TOWER

28/10 2710x46

自衛隊 military

3000

030@11G22KT

28.94

RJNG 221243Z 03011G22KT 340V070 3000 R28/1300VP1800U +SHRA FEW008 BKN025 FEW025CB BKN045 18/16 Q0980 RMK 1CU008 5CU025 1CB025 7SC045 A2896 R1700 CB OHD

RJOE / Akeno

RJOE_APP

TOWER

13/31 500x30
04/22 500x30

自衛隊 military

過去5時間に発表されたMETARがありません。

RJNK / Komatsu
VMC

RJNK_APP

TOWER

06/24 2700x45

共用 dual

4000

030@30G41KT

29.20

RJNK 221300Z 03030G41KT 4000 SHRA FEW008 BKN010 BKN030 17/15 Q0989

RJNW / Noto
VMC

NO RADAR

RADIO

25/07 2000x45

民間 civil

5000

050@15G29KT

29.56

RJNW 221000Z 05015G29KT 340V080 5000 -SHRA BR FEW000 SCT015 BKN020 16/16 Q1001

RJNT / Toyama
VMC

NO RADAR

TOWER

20/02 2000x45

民間 civil

9999

030@28G52KT

29.26

RJNT 221200Z 03028G52KT 360V070 9999 -SHRA FEW005 BKN080 18/14 Q0991

RJNF / Fukui

NO RADAR

REMOTE

18/36 1200x30

民間 civil

過去5時間に発表されたMETARがありません。

RJBD / Nanki-Shirahama
IMC

NO RADAR

RADIO

15/33 2000x45

民間 civil

1000

350@21KT

28.94

RJBD 221000Z 35021KT 1000 +SHRA BR FEW001 SCT010 BKN020 16/16 Q0980

RJOY / Yao
VMC

RJBB_APP

TOWER

27/09 1490x45
13/31 1200x30

民間 civil

3000

010@9KT

29.11

RJOY 221000Z 01009KT 320V060 3000 SHRA BR FEW002 SCT020 BKN025 16/13 Q0986

RJOO / Osaka
VMC

RJBB_APP

TOWER

32L/14R 3000x60
32R/14L 1830x45

民間 civil

7000

360@21G45KT

29.00

RJOO 221120Z 36021G45KT 330V030 7000 SHRA FEW005 SCT020 BKN060 18/14 Q0982 RMK 1ST005 4CU020 6SC060 A2901

RJOB / Okayama
VMC

RJBB_APP

TOWER

07/25 3000x45

民間 civil

7000

020@16G28KT

29.29

RJOB 221200Z 02016G28KT 350V050 7000 SHRA FEW001 SCT030 BKN080 15/13 Q0992

RJBB / Kansai
VMC

RJBB_APP

TOWER

06R/24L 3500x60
06L/24R 4000x60

民間 civil

3500

330@19KT

29.06

RJBB 221300Z 33019KT 3500 R06R/P2000N R06L/2000N +SHRA BR FEW003 SCT015 BKN025 17/16 Q0984 BECMG 36034G44KT TEMPO 1500 +SHRA BR FEW005 BKN008 BKN015

RJBE / Kobe
VMC

RJBB_APP

TOWER

09/27 2500x60

民間 civil

3500

010@21G37KT

29.00

RJBE 221200Z 01021G37KT 310V050 3500 -SHRA BR FEW005 SCT008 BKN010 18/15 Q0982

RJBT / Tajima
VMC

NO RADAR

REMOTE

01/19 1200x30

民間 civil

4000

030@16G32KT

29.47

RJBT 220900Z 03016G32KT 340V060 4000 +SHRA FEW000 BKN005 BKN010 16/15 Q0998

RJOR / Tottori
VMC

NO RADAR

RADIO

10/28 2000x45

民間 civil

2000

020@36KT

29.47

RJOR 221219Z 02036KT 2000 R10/1400VP1800D SHRA BR FEW005 SCT020 BKN030 17/15 Q0998 RMK 1ST005 3CU020 5CU030 A2948

RJNO / Oki

NO RADAR

REMOTE

07/25 2000x45

民間 civil

過去5時間に発表されたMETARがありません。

RJOH / Miho
VMC

RJOH_APP

TOWER

25/07 2500x45

共用 dual

3000

030@27G39KT

29.50

RJOH 221300Z 03027G39KT 3000 SHRA FEW005 BKN010 OVC040 16/14 Q0999

RJOC / Izumo
VMC

RJOH_APP

RADIO

07/25 2000x45

共用 dual

4000

040@25G36KT

29.50

RJOC 221100Z 04025G36KT 4000 SHRA BR FEW015 BKN020 17/16 Q0999

RJDG Fukuoka Control

RJOT / Takamatsu
VMC

RJBB_APP

TOWER

26/08 2500x60

民間 civil

5000

300@9KT

29.32

RJOT 221200Z 30009KT 260V330 5000 SHRA BR FEW001 SCT010 BKN015 15/15 Q0993

RJOK / Kochi
VMC

RJBB_APP

TOWER

32/14 2500x45

民間 civil

8000

010@24G46KT

29.03

RJOK 221100Z 01024G46KT 8000 -SHRA FEW007 SCT035 BKN050 17/13 Q0983

RJOS / Tokushima
VMC

RJOS_APP

TOWER

29/11 2500x45

共用 dual

2400

350@30G53KT

29.14

RJOS 221208Z 35030G53KT 2400 R29/1800U SHRA BR FEW006 SCT012 OVC020 FEW020CB 17/15 Q0987 RMK 2ST006 4CU012 8CU020 1CB020 A2915 CB 10KM NW MOV NW

RJOA / Hiroshima
VMC

RJOA_APP

TOWER

10/28 3000x60

民間 civil

4500

020@13G27KT

29.35

RJOA 221200Z 02013G27KT 350V060 4500 SHRA BR FEW002 SCT020 BKN030 15/12 Q0994

RJBH / Hiroshimanishi

NO RADAR

Flight Service

04/22 1800x45

民間 civil

過去5時間に発表されたMETARがありません。

RJOI / Iwakuni
VMC

RJOI_APP

TOWER

02/20 2440x60

共用 dual

9999

360@19G26KT

29.37

RJOI 221255Z 36019G26KT 9999 FEW030 SCT040 BKN050 19/13 A2937 RMK PK WND 36026/1255 SHRAE44 SLP945 P0001 T01890133

RJOM / Matsuyama
VMC

RJOI_APP

TOWER

14/32 2500x45

民間 civil

9999

030@23G42KT

29.26

RJOM 221244Z 03023G42KT 9999 -SHRA FEW010 SCT025 BKN040 17/13 Q0991 RMK 1ST010 3CU025 5CU040 A2928

RJOZ / Ozuki
VMC

RJFZ_APP

TOWER

35/17 1201x61
12/30 899x46

自衛隊 military

7000

350@19G29KT

29.44

RJOZ 221243Z 35019G29KT 7000 SHRA FEW010 BKN015 BKN020 17/15 Q0997 RMK 2CU010 5CU015 6CU020 A2947

RJOF / Hofu
VMC

RJFZ_APP

TOWER

30/12 1180x60
01/19 1480x45

自衛隊 military

9999

350@8KT

29.38

RJOF 221132Z 35008KT 310V010 9999 FEW025 SCT035 19/13 Q0995 RMK 2CU025 4CU035 A2940

RJDC / Yamaguchi-Ube
VMC

RJFZ_APP

RADIO

07/25 2500x45

民間 civil

9999

010@10KT

29.41

RJDC 221200Z 01010KT 330V040 9999 VCSH FEW015 SCT040 BKN080 19/15 Q0996

RJFR / Kitakyushu
VMC

RJFZ_APP

TOWER

18/36 2500x60

民間 civil

6000

340@21G31KT

29.47

RJFR 221302Z 34021G31KT 6000 -SHRA FEW015 SCT030 BKN040 18/14 Q0998 RMK 1CU015 4CU030 6CU040 A2948

RJFZ / Tsuiki

RJFZ_APP

TOWER

25/07 2399x46

自衛隊 military

過去5時間に発表されたMETARがありません。

RJOW / Iwami
VMC

NO RADAR

REMOTE

11/29 2000x45

民間 civil

7000

020@9KT

29.41

RJOW 221000Z 02009KT 320V100 7000 -SHRA FEW005 SCT030 BKN040 18/15 Q0996

RJDT / Tsushima
VMC

NO RADAR

REMOTE

32/14 1900x45

民間 civil

9999

010@21G44KT

29.62

RJDT 221100Z 01021G44KT 330V050 9999 FEW030 SCT035 BKN040 19/12 Q1003

RJFF / Fukuoka
VMC

RJFF_APP

TOWER

16/34 2800x60

民間 civil

6000

360@28G40KT

29.53

RJFF 221311Z 36028G40KT 6000 -SHRA FEW008 SCT020 BKN030 18/14 Q1000 RMK 1ST008 3CU020 5CU030 A2953

RJFS / Saga
VMC

RJFF_APP

RADIO

29/11 2000x45

民間 civil

9999

360@19G29KT

29.47

RJFS 221200Z 36019G29KT 9999 FEW020 SCT025 BKN030 19/15 Q0998

RJFA / Ashiya

RJFF_APP

TOWER

12/30 1640x46

自衛隊 military

過去5時間に発表されたMETARがありません。

RJDB / Iki

RJFF_APP

REMOTE

20/02 1200x30

民間 civil

過去5時間に発表されたMETARがありません。

RJFO / Oita
VMC

RJFO_APP

TOWER

01/19 3000x45

民間 civil

9999

320@15G26KT

29.35

RJFO 221304Z 32015G26KT 9999 FEW008 SCT035 BKN045 20/14 Q0994 RMK 1ST008 3CU035 5CU045 A2936

RJFU / Nagasaki
VMC

RJFU_APP

TOWER

32/14 3000x60

民間 civil

9999

360@26G36KT

29.50

RJFU 221227Z 36026G36KT 9999 -SHRA FEW025 BKN035 BKN040 18/15 Q0999 RMK 2CU025 5CU035 7CU040 A2951

RJDU / Omura

RJFU_APP

TOWER

18/36 1200x30

自衛隊 military

過去5時間に発表されたMETARがありません。

RJFE / Fukue

NO RADAR

RADIO

03/21 2000x45

民間 civil

過去5時間に発表されたMETARがありません。

RJDO / Ojika

NO RADAR

REMOTE

03/21 800x30

民間 civil

過去5時間に発表されたMETARがありません。

RJDK / Kamigoto

NO RADAR

REMOTE

17/35 800x30

民間 civil

過去5時間に発表されたMETARがありません。

RJDA / Amakusa

NO RADAR

Flight Service

31/13 1000x30

民間 civil

過去5時間に発表されたMETARがありません。

RJFT / Kumamoto
VMC

RJFT_APP

TOWER

07/25 3000x45

民間 civil

9999

360@3KT

29.41

RJFT 221200Z 36003KT 310V080 9999 FEW040 BKN045 18/14 Q0996

RJFN / Nyutabaru

RJFM_APP

TOWER

28/10 2701x46

自衛隊 military

過去5時間に発表されたMETARがありません。

RJFM / Miyazaki
VMC

RJFM_APP

TOWER

27/09 2500x45

民間 civil

9999

300@8KT

29.26

RJFM 221200Z 30008KT 9999 FEW005 SCT060 BKN070 20/15 Q0991

RJFK / Kagoshima
VMC

RJFK_APP

TOWER

34/16 3000x45

民間 civil

9999

330@16G27KT

29.35

RJFK 221200Z 33016G27KT 9999 FEW020 SCT040 18/12 Q0994 RMK 1CU020 3CU040 A2935 MOD TURB OBS AT 1148Z 40NM NE OF RJFK BTN 7000FT AND 6000FT IN DES E170

RJFY / Kanoya

RJFY_APP

TOWER

26L/08R 2250x45
26R/08L 1200x40

自衛隊 military

過去5時間に発表されたMETARがありません。

RJFG / Tanegashima
VMC

NO RADAR

RADIO

31/13 2000x45

民間 civil

9999

310@9KT

29.23

RJFG 220900Z 31009KT 9999 FEW015 SCT030 BKN050 19/18 Q0990

RJFC / Yakushima

NO RADAR

REMOTE

14/32 1500x45

民間 civil

過去5時間に発表されたMETARがありません。

RORG Naha Control

ROAH / Naha
VMC

ROAH_APP

TOWER

36/18 3000x45

共用 dual

9999

330@22KT

29.65

ROAH 221300Z 33022KT 9999 -SHRA SCT030 26/18 Q1004 RMK 3CU030 A2967

RORA / Aguni

ROAH_APP

REMOTE

01/19 800x25

民間 civil

過去5時間に発表されたMETARがありません。

ROKJ / Kumejima

ROAH_APP

REMOTE

03/21 2000x45

民間 civil

過去5時間に発表されたMETARがありません。

RODN / Kadena
VMC

ROAH_APP

TOWER

05L/23R 3688x91
05R/23L 3688x61

自衛隊 military

9999

330@16G22KT

29.68

RODN 221259Z AUTO 33016G22KT 10SM FEW001 BKN070 24/19 A2968 RMK AO2 RAE59 SLP056

ROTM / Futenma
VMC

ROAH_APP

TOWER

06/24 2740x45

自衛隊 military

9000

340@17G23KT

29.70

ROTM 221259Z 34017G23KT 9000 BR SCT030 BKN050 25/18 A2970 RMK SLP040 STNPR29410 WND WRNG T02500182

RORS / Shimojishima
VMC

RORS_APP

TOWER

17/35 3000x60

民間 civil

9999

340@29KT

29.70

RORS 221000Z 34029KT 9999 SCT035 24/16 Q1006

ROMY / Miyako
VMC

RORS_APP

TOWER

04/22 2000x45

民間 civil

9999

350@13KT

29.73

ROMY 221100Z 35013KT 9999 FEW038 SCT050 24/16 Q1007

ROIG / New Ishigaki
VMC

RORS_APP

TOWER

22/04 2000x45

民間 civil

9999

350@12KT

29.76

ROIG 221100Z 35012KT 9999 FEW035 BKN050 23/14 Q1008

RORT / Tarama

RORS_APP

REMOTE

36/18 1500x45

民間 civil

過去5時間に発表されたMETARがありません。

RJKA / Amami
VMC

NO RADAR

RADIO

03/21 2000x45

民間 civil

9999

330@17KT

29.38

RJKA 221000Z 33017KT 300V360 9999 FEW025 SCT040 BKN050 24/19 Q0995

RJKI / Kikai

NO RADAR

REMOTE

07/25 1200x30

民間 civil

過去5時間に発表されたMETARがありません。

RJKN / Tokunoshima

NO RADAR

REMOTE

19/01 2000x45

民間 civil

過去5時間に発表されたMETARがありません。

RJKB / Okierabu

NO RADAR

REMOTE

04/22 1350x45

民間 civil

過去5時間に発表されたMETARがありません。

RORY / Yoron
VMC

NO RADAR

REMOTE

32/14 1320x30

民間 civil

9999

350@25KT

29.62

RORY 221300Z AUTO 35025KT 9999 FEW029 BKN033 25/19 Q1003

RORK / Kitadaito

NO RADAR

REMOTE

03/21 1500x45

民間 civil

過去5時間に発表されたMETARがありません。

ROMD / Minami-daito

NO RADAR

REMOTE

02/20 1500x45

民間 civil

過去5時間に発表されたMETARがありません。

ROYN / Yonaguni
VMC

NO RADAR

REMOTE

26/08 2000x45

民間 civil

7000

350@28KT

29.85

ROYN 221300Z AUTO 35028KT 7000 FEW039 OVC050 24/16 Q1011

RORH / Hateruma

NO RADAR

REMOTE

02/20 800x25

民間 civil

過去5時間に発表されたMETARがありません。

ROKR / Kerama

NO RADAR

REMOTE

02/20 800x25

民間 civil

過去5時間に発表されたMETARがありません。